createdAt,value
2019-01-09T00:00:24.059Z,4.20
2019-01-09T00:02:59.428Z,4.21
2019-01-09T00:05:32.426Z,4.15
2019-01-09T00:08:02.279Z,4.10
2019-01-09T00:10:32.718Z,4.09
2019-01-09T00:13:02.642Z,4.09
2019-01-09T00:15:33.969Z,4.10
2019-01-09T00:18:13.850Z,4.19
2019-01-09T00:20:47.314Z,4.25
2019-01-09T00:23:22.339Z,4.10
2019-01-09T00:25:55.141Z,4.13
2019-01-09T00:28:28.958Z,4.16
2019-01-09T00:31:00.477Z,4.12
2019-01-09T00:33:34.206Z,4.17
2019-01-09T00:36:12.612Z,4.16
2019-01-09T00:38:49.557Z,4.15
2019-01-09T00:41:24.054Z,4.08
2019-01-09T00:44:01.838Z,4.10
2019-01-09T00:46:33.344Z,4.11
2019-01-09T00:49:12.772Z,4.07
2019-01-09T00:51:44.308Z,4.17
2019-01-09T00:54:14.129Z,4.16
2019-01-09T00:56:45.730Z,4.01
2019-01-09T00:59:18.496Z,4.11
2019-01-09T01:01:53.148Z,4.07
2019-01-09T01:04:26.176Z,4.03
2019-01-09T01:07:17.318Z,4.12
2019-01-09T01:10:11.025Z,4.11
2019-01-09T01:12:49.445Z,4.08
2019-01-09T01:15:46.166Z,4.08
2019-01-09T01:18:24.086Z,4.07
2019-01-09T01:20:59.941Z,4.06
2019-01-09T01:23:41.623Z,4.08
2019-01-09T01:26:17.129Z,4.10
2019-01-09T01:28:56.018Z,4.02
2019-01-09T01:31:58.081Z,4.01
2019-01-09T01:35:04.702Z,4.10
2019-01-09T01:37:52.584Z,4.14
2019-01-09T01:40:40.746Z,4.02
2019-01-09T01:43:13.733Z,4.06
2019-01-09T01:46:04.970Z,4.13
2019-01-09T01:48:54.541Z,4.04
2019-01-09T01:51:33.166Z,4.04
2019-01-09T01:54:24.094Z,4.00
2019-01-09T01:57:14.565Z,4.06
2019-01-09T01:59:58.210Z,4.02
2019-01-09T02:02:53.087Z,4.02
2019-01-09T02:05:34.680Z,3.97
2019-01-09T02:08:13.565Z,4.04
2019-01-09T02:11:16.163Z,4.05
2019-01-09T02:14:04.660Z,4.08
2019-01-09T02:16:44.588Z,4.09
2019-01-09T02:19:41.133Z,4.08
2019-01-09T02:22:31.543Z,4.16
2019-01-09T02:25:04.569Z,4.17
2019-01-09T02:27:40.480Z,4.12
2019-01-09T02:30:37.467Z,4.19
2019-01-09T02:33:10.904Z,4.16
2019-01-09T02:35:43.400Z,4.20
2019-01-09T02:38:16.312Z,4.27
2019-01-09T02:40:45.976Z,4.16
2019-01-09T02:43:15.938Z,4.23
2019-01-09T02:45:56.670Z,4.18
2019-01-09T02:48:29.899Z,4.15
2019-01-09T02:51:04.379Z,4.13
2019-01-09T02:53:34.172Z,4.08
2019-01-09T02:56:07.627Z,4.08
2019-01-09T02:58:42.245Z,4.09
2019-01-09T03:01:12.202Z,4.07
2019-01-09T03:03:42.159Z,4.14
2019-01-09T03:06:22.706Z,4.09
2019-01-09T03:08:47.105Z,4.11
2019-01-09T03:11:17.205Z,4.11
2019-01-09T03:13:52.373Z,4.07
2019-01-09T03:16:26.786Z,4.04
2019-01-09T03:19:00.022Z,4.04
2019-01-09T03:21:30.191Z,4.01
2019-01-09T03:24:01.965Z,4.08
2019-01-09T03:26:34.338Z,4.08
2019-01-09T03:29:04.237Z,4.06
2019-01-09T03:31:34.039Z,4.00
2019-01-09T03:34:04.200Z,4.08
2019-01-09T03:36:36.818Z,4.02
2019-01-09T03:39:07.239Z,4.07
2019-01-09T03:41:38.628Z,4.01
2019-01-09T03:44:11.231Z,3.98
2019-01-09T03:46:42.081Z,3.99
2019-01-09T03:49:14.341Z,3.95
2019-01-09T03:51:47.634Z,3.92
2019-01-09T03:54:17.395Z,3.94
2019-01-09T03:56:50.340Z,3.88
2019-01-09T03:59:22.253Z,3.95
2019-01-09T04:01:52.127Z,3.94
2019-01-09T04:04:22.416Z,3.85
2019-01-09T04:06:52.498Z,3.77
2019-01-09T04:09:22.138Z,3.88
2019-01-09T04:11:54.164Z,3.88
2019-01-09T04:14:23.768Z,3.94
2019-01-09T04:16:53.357Z,3.81
2019-01-09T04:19:22.920Z,3.85
2019-01-09T04:21:54.153Z,3.76
2019-01-09T04:24:24.326Z,3.88
2019-01-09T04:26:54.190Z,3.81
2019-01-09T04:29:24.062Z,3.78
2019-01-09T04:31:53.888Z,3.80
2019-01-09T04:34:24.907Z,3.77
2019-01-09T04:36:54.595Z,3.88
2019-01-09T04:39:26.462Z,3.82
2019-01-09T04:41:56.365Z,3.87
2019-01-09T04:44:25.959Z,3.87
2019-01-09T04:46:55.624Z,3.85
2019-01-09T04:49:25.190Z,3.86
2019-01-09T04:51:57.710Z,3.78
2019-01-09T04:54:29.276Z,3.82
2019-01-09T04:57:03.216Z,3.87
2019-01-09T04:59:38.699Z,3.80
2019-01-09T05:02:10.164Z,3.86
2019-01-09T05:04:40.380Z,3.85
2019-01-09T05:07:13.117Z,3.98
2019-01-09T05:09:43.826Z,3.79
2019-01-09T05:12:14.812Z,3.74
2019-01-09T05:14:49.906Z,3.79
2019-01-09T05:17:23.475Z,3.78
2019-01-09T05:19:53.220Z,3.77
2019-01-09T05:22:22.952Z,3.76
2019-01-09T05:24:56.968Z,3.85
2019-01-09T05:27:28.495Z,3.83
2019-01-09T05:30:03.412Z,3.85
2019-01-09T05:32:39.443Z,3.81
2019-01-09T05:35:15.856Z,3.79
2019-01-09T05:37:52.575Z,3.87
2019-01-09T05:40:23.825Z,3.80
2019-01-09T05:42:59.056Z,3.90
2019-01-09T05:45:29.370Z,3.87
2019-01-09T05:48:03.044Z,3.83
2019-01-09T05:50:32.915Z,3.86
2019-01-09T05:53:02.825Z,3.85
2019-01-09T05:55:32.914Z,3.87
2019-01-09T05:58:07.672Z,3.82
2019-01-09T06:00:39.131Z,3.88
2019-01-09T06:03:09.165Z,3.79
2019-01-09T06:05:41.931Z,3.86
2019-01-09T06:08:11.027Z,3.74
2019-01-09T06:10:40.866Z,3.71
2019-01-09T06:13:10.647Z,3.73
2019-01-09T06:15:42.482Z,3.66
2019-01-09T06:18:18.395Z,3.67
2019-01-09T06:20:50.590Z,3.72
2019-01-09T06:23:23.255Z,3.69
2019-01-09T06:25:56.184Z,3.77
2019-01-09T06:28:26.594Z,3.66
2019-01-09T06:31:38.325Z,3.61
2019-01-09T06:33:53.080Z,3.74
2019-01-09T06:36:22.785Z,3.76
2019-01-09T06:38:52.644Z,3.70
2019-01-09T06:41:24.282Z,3.83
2019-01-09T06:43:57.803Z,3.76
2019-01-09T06:46:31.258Z,3.81
2019-01-09T06:49:14.165Z,3.91
2019-01-09T06:51:47.142Z,3.84
2019-01-09T06:54:27.102Z,3.99
2019-01-09T06:56:56.118Z,3.92
2019-01-09T06:59:30.137Z,3.91
2019-01-09T07:02:04.018Z,3.88
2019-01-09T07:04:37.273Z,3.89
2019-01-09T07:07:06.787Z,3.90
2019-01-09T07:09:36.340Z,3.91
2019-01-09T07:12:06.074Z,3.98
2019-01-09T07:14:38.564Z,3.95
2019-01-09T07:17:08.066Z,3.93
2019-01-09T07:19:37.619Z,3.97
2019-01-09T07:22:07.058Z,3.91
2019-01-09T07:24:36.494Z,3.99
2019-01-09T07:27:06.065Z,4.00
2019-01-09T07:29:35.576Z,4.04
2019-01-09T07:32:05.100Z,4.05
2019-01-09T07:34:34.609Z,4.03
2019-01-09T07:37:04.069Z,3.94
2019-01-09T07:39:33.489Z,4.01
2019-01-09T07:42:03.004Z,4.07
2019-01-09T07:44:32.434Z,3.99
2019-01-09T07:47:01.920Z,3.86
2019-01-09T07:49:31.567Z,3.83
2019-01-09T07:52:01.233Z,3.79
2019-01-09T07:54:30.920Z,3.89
2019-01-09T07:57:00.598Z,3.85
2019-01-09T07:59:29.986Z,3.80
2019-01-09T08:01:59.441Z,3.94
2019-01-09T08:04:28.875Z,3.88
2019-01-09T08:06:58.401Z,3.80
2019-01-09T08:09:27.873Z,3.80
2019-01-09T08:11:57.588Z,3.87
2019-01-09T08:14:27.169Z,3.91
2019-01-09T08:16:56.810Z,3.76
2019-01-09T08:19:26.435Z,3.80
2019-01-09T08:21:55.986Z,3.76
2019-01-09T08:24:25.573Z,3.84
2019-01-09T08:26:55.078Z,3.83
2019-01-09T08:29:24.554Z,3.81
2019-01-09T08:31:54.065Z,3.92
2019-01-09T08:34:23.569Z,3.86
2019-01-09T08:36:53.104Z,3.81
2019-01-09T08:39:23.645Z,3.72
2019-01-09T08:41:53.227Z,3.86
2019-01-09T08:44:22.790Z,3.90
2019-01-09T08:46:52.265Z,3.94
2019-01-09T08:49:21.830Z,3.81
2019-01-09T08:51:51.368Z,3.88
2019-01-09T08:54:20.882Z,3.88
2019-01-09T08:56:50.498Z,3.96
2019-01-09T08:59:20.099Z,3.89
2019-01-09T09:01:49.599Z,3.83
2019-01-09T09:04:19.098Z,3.85
2019-01-09T09:06:48.547Z,3.96
2019-01-09T09:09:18.058Z,3.81
2019-01-09T09:11:47.573Z,3.79
2019-01-09T09:14:17.153Z,3.84
2019-01-09T09:16:46.625Z,3.83
2019-01-09T09:19:16.099Z,3.84
2019-01-09T09:21:45.612Z,3.79
2019-01-09T09:24:15.130Z,3.85
2019-01-09T09:26:44.659Z,3.83
2019-01-09T09:29:14.095Z,3.85
2019-01-09T09:31:43.637Z,3.94
2019-01-09T09:34:13.237Z,3.85
2019-01-09T09:36:42.866Z,3.80
2019-01-09T09:39:12.346Z,3.87
2019-01-09T09:41:41.847Z,3.86
2019-01-09T09:44:11.339Z,3.86
2019-01-09T09:46:40.913Z,3.90
2019-01-09T09:49:10.435Z,3.90
2019-01-09T09:51:40.081Z,4.00
2019-01-09T09:54:09.549Z,3.92
2019-01-09T09:56:39.080Z,3.85
2019-01-09T09:59:08.581Z,3.89
2019-01-09T10:01:38.148Z,3.91
2019-01-09T10:04:07.776Z,3.90
2019-01-09T10:06:37.301Z,3.99
2019-01-09T10:09:08.827Z,3.97
2019-01-09T10:11:38.345Z,3.89
2019-01-09T10:14:07.858Z,4.03
2019-01-09T10:16:37.452Z,4.02
2019-01-09T10:19:06.924Z,4.11
2019-01-09T10:21:36.448Z,4.02
2019-01-09T10:24:06.012Z,3.98
2019-01-09T10:26:35.526Z,3.97
2019-01-09T10:29:05.013Z,3.94
2019-01-09T10:31:34.569Z,4.04
2019-01-09T10:34:03.983Z,4.04
2019-01-09T10:36:33.502Z,4.11
2019-01-09T10:39:03.700Z,4.02
2019-01-09T10:41:33.245Z,3.92
2019-01-09T10:44:02.998Z,3.99
2019-01-09T10:46:32.581Z,4.00
2019-01-09T10:49:03.716Z,3.98
2019-01-09T10:51:33.328Z,3.99
2019-01-09T10:54:02.878Z,4.01
2019-01-09T10:56:32.462Z,4.03
2019-01-09T10:59:01.955Z,4.07
2019-01-09T11:01:31.513Z,4.06
2019-01-09T11:04:01.026Z,4.14
2019-01-09T11:06:30.518Z,4.07
2019-01-09T11:09:00.034Z,4.03
2019-01-09T11:11:29.574Z,3.99
2019-01-09T11:13:59.086Z,4.05
2019-01-09T11:16:28.532Z,4.01
2019-01-09T11:18:58.085Z,4.10
2019-01-09T11:21:27.627Z,4.13
2019-01-09T11:23:57.153Z,4.08
2019-01-09T11:26:26.601Z,4.18
2019-01-09T11:28:56.223Z,4.14
2019-01-09T11:31:25.716Z,4.19
2019-01-09T11:33:55.209Z,4.06
2019-01-09T11:36:24.748Z,4.03
2019-01-09T11:38:55.896Z,4.16
2019-01-09T11:41:29.881Z,4.07
2019-01-09T11:49:52.754Z,4.06
2019-01-09T11:52:37.264Z,4.01
2019-01-09T11:55:29.555Z,4.03
2019-01-09T11:58:15.831Z,4.09
2019-01-09T12:01:11.116Z,4.03
2019-01-09T12:03:44.193Z,4.19
2019-01-09T12:06:28.319Z,4.13
2019-01-09T12:09:35.726Z,4.06
2019-01-09T12:11:54.343Z,4.05
2019-01-09T12:14:27.941Z,4.03
2019-01-09T12:17:06.614Z,4.00
2019-01-09T12:19:47.705Z,4.04
2019-01-09T12:25:31.547Z,4.10
2019-01-09T12:31:42.420Z,4.06
2019-01-09T12:34:36.656Z,4.15
2019-01-09T12:37:42.712Z,4.09
2019-01-09T12:40:14.615Z,4.13
2019-01-09T12:43:00.496Z,4.03
2019-01-09T12:45:49.973Z,4.25
2019-01-09T12:48:55.610Z,4.28
2019-01-09T12:51:36.918Z,4.23
2019-01-09T12:54:19.824Z,4.16
2019-01-09T12:56:57.804Z,4.01
2019-01-09T13:02:33.943Z,4.20
2019-01-09T13:05:17.816Z,4.11
2019-01-09T13:07:52.967Z,4.16
2019-01-09T13:10:40.302Z,4.17
2019-01-09T13:16:20.085Z,4.19
2019-01-09T13:19:08.617Z,4.22
2019-01-09T13:21:50.814Z,4.27
2019-01-09T13:24:24.939Z,4.16
2019-01-09T13:27:03.675Z,4.26
2019-01-09T13:29:52.665Z,4.25
2019-01-09T13:32:36.828Z,4.29
2019-01-09T13:41:07.333Z,4.18
2019-01-09T13:43:44.205Z,4.03
2019-01-09T13:46:25.181Z,3.98
2019-01-09T13:49:09.395Z,4.11
2019-01-09T13:51:45.358Z,4.03
2019-01-09T13:54:17.574Z,4.14
2019-01-09T13:56:47.161Z,4.03
2019-01-09T13:59:17.038Z,4.08
2019-01-09T14:02:08.007Z,4.08
2019-01-09T14:04:41.009Z,4.14
2019-01-09T14:07:34.942Z,3.99
2019-01-09T14:10:11.822Z,4.09
2019-01-09T14:13:11.190Z,4.00
2019-01-09T14:15:42.106Z,3.95
2019-01-09T14:18:14.577Z,3.93
2019-01-09T14:20:47.208Z,3.90
2019-01-09T14:23:29.974Z,3.79
2019-01-09T14:26:13.225Z,3.91
2019-01-09T14:29:01.659Z,3.88
2019-01-09T14:31:33.710Z,3.94
2019-01-09T14:34:06.113Z,3.89
2019-01-09T14:39:33.994Z,3.87
2019-01-09T14:42:14.939Z,3.92
2019-01-09T14:45:07.540Z,3.85
2019-01-09T14:47:35.663Z,3.84
2019-01-09T14:50:21.850Z,3.86
2019-01-09T14:53:01.168Z,3.71
2019-01-09T14:55:38.187Z,3.88
2019-01-09T14:58:18.949Z,3.91
2019-01-09T15:00:53.301Z,3.83
2019-01-09T15:03:33.867Z,3.84
2019-01-09T15:06:09.431Z,3.90
2019-01-09T15:08:54.992Z,3.99
2019-01-09T15:12:04.495Z,3.93
2019-01-09T15:14:47.957Z,3.90
2019-01-09T15:20:43.904Z,3.93
2019-01-09T15:26:28.071Z,3.89
2019-01-09T15:29:43.136Z,3.87
2019-01-09T15:32:18.258Z,3.94
2019-01-09T15:35:06.670Z,3.92
2019-01-09T15:37:46.280Z,3.85
2019-01-09T15:40:39.101Z,3.93
2019-01-09T15:43:54.529Z,3.89
2019-01-09T15:46:29.507Z,3.96
2019-01-09T15:48:59.716Z,3.91
2019-01-09T15:51:36.068Z,3.96
2019-01-09T15:54:05.693Z,3.78
2019-01-09T15:56:35.153Z,3.92
2019-01-09T15:59:05.298Z,3.88
2019-01-09T16:01:35.155Z,3.84
2019-01-09T16:04:05.287Z,3.84
2019-01-09T16:06:35.163Z,3.87
2019-01-09T16:09:06.195Z,3.87
2019-01-09T16:11:41.343Z,3.73
2019-01-09T16:14:11.716Z,3.89
2019-01-09T16:16:41.490Z,3.75
2019-01-09T16:19:11.240Z,3.81
2019-01-09T16:21:45.064Z,3.77
2019-01-09T16:24:16.240Z,3.77
2019-01-09T16:26:46.743Z,3.87
2019-01-09T16:29:17.282Z,3.84
2019-01-09T16:31:48.551Z,3.70
2019-01-09T16:34:19.948Z,3.79
2019-01-09T16:36:51.079Z,3.75
2019-01-09T16:39:30.522Z,3.65
2019-01-09T16:41:55.424Z,3.65
2019-01-09T16:44:25.781Z,3.65
2019-01-09T16:46:57.765Z,3.68
2019-01-09T16:49:28.189Z,3.65
2019-01-09T16:51:58.119Z,3.71
2019-01-09T16:54:27.680Z,3.64
2019-01-09T16:56:57.300Z,3.75
2019-01-09T16:59:26.932Z,3.73
2019-01-09T17:01:56.659Z,3.62
2019-01-09T17:04:26.439Z,3.71
2019-01-09T17:06:56.183Z,3.66
2019-01-09T17:09:25.696Z,3.71
2019-01-09T17:11:55.155Z,3.77
2019-01-09T17:14:24.838Z,3.71
2019-01-09T17:16:54.666Z,3.67
2019-01-09T17:19:24.344Z,3.65
2019-01-09T17:21:53.760Z,3.72
2019-01-09T17:24:23.722Z,3.69
2019-01-09T17:26:53.346Z,3.66
2019-01-09T17:29:22.941Z,3.70
2019-01-09T17:31:52.378Z,3.64
2019-01-09T17:34:21.809Z,3.63
2019-01-09T17:36:51.225Z,3.66
2019-01-09T17:39:20.698Z,3.64
2019-01-09T17:41:50.531Z,3.66
2019-01-09T17:53:19.310Z,3.59
2019-01-09T17:55:48.789Z,3.59
2019-01-09T17:58:18.271Z,3.61
2019-01-09T18:00:48.463Z,3.73
2019-01-09T18:03:18.020Z,3.71
2019-01-09T18:05:49.110Z,3.70
2019-01-09T18:11:08.389Z,3.61
2019-01-09T18:13:37.989Z,3.66
2019-01-09T18:16:07.508Z,3.62
2019-01-09T18:18:37.099Z,3.65
2019-01-09T18:21:08.238Z,3.69
2019-01-09T18:23:38.326Z,3.63
2019-01-09T18:26:07.832Z,3.70
2019-01-09T18:28:39.128Z,3.55
2019-01-09T18:31:14.683Z,3.63
2019-01-09T18:33:47.399Z,3.63
2019-01-09T18:36:20.024Z,3.62
2019-01-09T18:38:52.983Z,3.63
2019-01-09T18:41:45.533Z,3.62
2019-01-09T18:44:18.384Z,3.70
2019-01-09T18:47:16.267Z,3.67
2019-01-09T18:49:55.185Z,3.69
2019-01-09T18:52:34.296Z,3.57
2019-01-09T18:55:04.957Z,3.60
2019-01-09T18:57:34.524Z,3.62
2019-01-09T19:00:07.584Z,3.66
2019-01-09T19:02:37.437Z,3.66
2019-01-09T19:05:06.968Z,3.58
2019-01-09T19:07:36.469Z,3.51
2019-01-09T19:10:18.068Z,3.67
2019-01-09T19:12:48.001Z,3.54
2019-01-09T19:15:17.890Z,3.61
2019-01-09T19:17:47.596Z,3.58
2019-01-09T19:20:17.097Z,3.59
2019-01-09T19:22:46.652Z,3.63
2019-01-09T19:25:17.136Z,3.58
2019-01-09T19:27:46.584Z,3.62
2019-01-09T19:30:26.856Z,3.58
2019-01-09T19:32:56.418Z,3.58
2019-01-09T19:35:26.403Z,3.64
2019-01-09T19:37:56.085Z,3.49
2019-01-09T19:40:25.697Z,3.48
2019-01-09T19:42:55.229Z,3.47
2019-01-09T19:45:24.682Z,3.53
2019-01-09T19:47:54.184Z,3.39
2019-01-09T19:50:24.619Z,3.50
2019-01-09T19:52:54.246Z,3.54
2019-01-09T19:55:23.809Z,3.63
2019-01-09T19:57:53.280Z,3.62
2019-01-09T20:00:24.019Z,3.47
2019-01-09T20:02:53.741Z,3.41
2019-01-09T20:05:23.268Z,3.40
2019-01-09T20:07:52.799Z,3.72
2019-01-09T20:10:26.121Z,3.49
2019-01-09T20:12:56.058Z,3.55
2019-01-09T20:15:25.666Z,3.55
2019-01-09T20:17:55.150Z,3.66
2019-01-09T20:20:24.638Z,3.52
2019-01-09T20:22:54.119Z,3.50
2019-01-09T20:25:24.750Z,3.51
2019-01-09T20:27:54.221Z,3.41
2019-01-09T20:30:26.001Z,3.48
2019-01-09T20:32:55.494Z,3.51
2019-01-09T20:35:24.958Z,3.43
2019-01-09T20:37:54.701Z,3.50
2019-01-09T20:40:24.573Z,3.53
2019-01-09T20:42:54.186Z,3.51
2019-01-09T20:45:23.758Z,3.39
2019-01-09T20:47:53.297Z,3.51
2019-01-09T20:50:25.286Z,3.46
2019-01-09T20:52:54.787Z,3.40
2019-01-09T20:55:26.815Z,3.36
2019-01-09T20:57:56.438Z,3.31
2019-01-09T21:00:27.549Z,3.38
2019-01-09T21:02:59.445Z,3.49
2019-01-09T21:05:31.888Z,3.46
2019-01-09T21:08:01.539Z,3.34
2019-01-09T21:10:31.017Z,3.37
2019-01-09T21:13:00.550Z,3.39
2019-01-09T21:15:30.065Z,3.32
2019-01-09T21:17:59.600Z,3.17
2019-01-09T21:20:29.090Z,3.25
2019-01-09T21:22:58.577Z,3.26
2019-01-09T21:25:28.141Z,3.23
2019-01-09T21:28:05.444Z,3.19
2019-01-09T21:30:34.668Z,3.20
2019-01-09T21:33:04.124Z,3.10
2019-01-09T21:35:33.924Z,3.29
2019-01-09T21:38:06.494Z,3.02
2019-01-09T21:40:35.976Z,3.23
2019-01-09T21:43:05.451Z,3.16
2019-01-09T21:45:34.849Z,3.20
2019-01-09T21:48:04.256Z,3.25
2019-01-09T21:50:33.731Z,3.19
2019-01-09T21:53:03.169Z,3.16
2019-01-09T21:55:32.578Z,3.03
2019-01-09T21:58:01.990Z,3.20
2019-01-09T22:00:33.818Z,3.08
2019-01-09T22:03:03.315Z,3.00
2019-01-09T22:05:32.832Z,3.12
2019-01-09T22:08:02.396Z,3.27
2019-01-09T22:10:33.613Z,3.02
2019-01-09T22:13:03.082Z,3.10
2019-01-09T22:15:32.537Z,3.14
2019-01-09T22:18:01.991Z,3.12
2019-01-09T22:20:31.491Z,3.03
2019-01-09T22:23:00.974Z,3.13
2019-01-09T22:25:30.787Z,3.13
2019-01-09T22:28:00.256Z,3.19
2019-01-09T22:30:29.793Z,3.12
2019-01-09T22:32:59.191Z,3.12
2019-01-09T22:35:28.600Z,3.14
2019-01-09T22:37:58.003Z,3.15
2019-01-09T22:40:27.464Z,3.16
2019-01-09T22:42:56.877Z,2.92
2019-01-09T22:45:26.393Z,3.11
2019-01-09T22:47:55.840Z,3.12
2019-01-09T22:50:25.304Z,3.12
2019-01-09T22:52:54.733Z,3.13
2019-01-09T22:55:24.270Z,3.06
2019-01-09T22:57:53.689Z,2.94
2019-01-09T23:00:34.922Z,3.01
2019-01-09T23:03:07.487Z,3.10
2019-01-09T23:05:38.372Z,3.13
2019-01-09T23:08:07.838Z,3.04
2019-01-09T23:10:37.275Z,2.91
2019-01-09T23:13:06.906Z,3.22
2019-01-09T23:15:36.346Z,3.06
2019-01-09T23:18:05.764Z,3.15
2019-01-09T23:20:35.152Z,3.05
2019-01-09T23:23:04.639Z,3.11
2019-01-09T23:25:34.045Z,2.99
2019-01-09T23:28:03.551Z,3.03
2019-01-09T23:30:32.954Z,2.98
2019-01-09T23:33:02.421Z,3.04
2019-01-09T23:35:31.816Z,2.88
2019-01-09T23:38:01.260Z,3.00
2019-01-09T23:40:30.668Z,2.87
2019-01-09T23:43:00.104Z,2.89
2019-01-09T23:45:29.535Z,2.94
2019-01-09T23:47:58.973Z,2.94
2019-01-09T23:50:28.432Z,2.93
2019-01-09T23:52:57.846Z,2.85
2019-01-09T23:55:27.299Z,2.86
2019-01-09T23:57:56.777Z,2.85
